Time;durP1;ratioP1;P1;durP2;ratioP2;P2;SDS_P1;SDS_P2;PMS_P1;PMS_P2;Temp;Humidity;BMP_temperature;BMP_pressure;BME280_temperature;BME280_humidity;BME280_pressure;Samples;Min_cycle;Max_cycle;Signal;HPM_P1;HPM_P2
2022/07/18 00:01:07;;;;;;;1999.90;999.90;;;20.80;30.00;;;;;;5013988;28;20169;-69
2022/07/18 00:03:32;;;;;;;1999.90;999.90;;;20.70;32.10;;;;;;5014008;28;20173;-69
2022/07/18 00:05:58;;;;;;;1999.90;999.90;;;20.50;32.40;;;;;;5013660;28;20163;-69
2022/07/18 00:08:24;;;;;;;1999.90;999.90;;;20.50;33.80;;;;;;5013695;28;20785;-69
2022/07/18 00:10:49;;;;;;;1999.90;999.90;;;20.40;35.10;;;;;;5013871;28;20245;-68
2022/07/18 00:13:15;;;;;;;1999.90;999.90;;;20.40;36.30;;;;;;5013608;28;20163;-69
2022/07/18 00:15:41;;;;;;;1999.90;999.90;;;20.40;37.90;;;;;;5013802;28;20599;-69
2022/07/18 00:18:07;;;;;;;1999.90;999.90;;;20.40;39.50;;;;;;5013528;28;20436;-69
2022/07/18 00:20:32;;;;;;;1999.90;999.90;;;20.30;40.60;;;;;;5013652;28;20186;-69
2022/07/18 00:22:58;;;;;;;1999.90;999.90;;;20.20;42.00;;;;;;5013769;28;20174;-69
2022/07/18 00:25:23;;;;;;;1999.90;999.90;;;20.20;44.40;;;;;;5013542;28;20708;-69
2022/07/18 00:27:49;;;;;;;1999.90;999.90;;;20.20;45.00;;;;;;5013366;28;20204;-68
2022/07/18 00:30:15;;;;;;;1999.90;999.90;;;20.20;46.60;;;;;;5013243;28;20627;-70
2022/07/18 00:32:41;;;;;;;1999.90;999.90;;;20.20;46.70;;;;;;5013429;28;20531;-70
2022/07/18 00:35:07;;;;;;;1999.90;999.90;;;20.20;46.50;;;;;;5013441;28;20182;-70
2022/07/18 00:37:32;;;;;;;1999.90;999.90;;;20.20;47.20;;;;;;5013324;28;20795;-70
2022/07/18 00:39:58;;;;;;;1999.90;999.90;;;20.30;49.60;;;;;;5013221;28;20426;-70
2022/07/18 00:42:24;;;;;;;1999.90;999.90;;;20.30;50.40;;;;;;5013260;28;20171;-69
2022/07/18 00:44:56;;;;;;;1999.90;999.90;;;20.40;53.70;;;;;;5013285;28;20198;-69
2022/07/18 00:47:22;;;;;;;1999.90;999.90;;;20.40;54.00;;;;;;5012935;28;20198;-70
2022/07/18 00:49:47;;;;;;;1999.90;999.90;;;20.40;54.30;;;;;;5013021;28;20430;-69
2022/07/18 00:52:13;;;;;;;1999.90;999.90;;;20.30;55.30;;;;;;5013125;28;20174;-69
2022/07/18 00:54:40;;;;;;;1999.90;999.90;;;20.20;56.70;;;;;;5012978;28;20169;-70
2022/07/18 00:57:05;;;;;;;1999.90;999.90;;;20.20;59.20;;;;;;5012605;28;20493;-70
2022/07/18 01:02:16;;;;;;;1999.90;999.90;;;20.00;65.00;;;;;;5013189;28;20551;-70
2022/07/18 01:04:42;;;;;;;1999.90;999.90;;;20.00;68.30;;;;;;5012836;28;20447;-70
2022/07/18 01:07:08;;;;;;;1999.90;999.90;;;19.90;70.70;;;;;;5012353;28;20221;-70
2022/07/18 01:09:33;;;;;;;1999.90;999.90;;;19.80;71.40;;;;;;5012734;28;21044;-70
2022/07/18 01:12:00;;;;;;;1999.90;999.90;;;19.70;76.20;;;;;;5012699;28;20412;-70
2022/07/18 01:14:26;;;;;;;1999.90;999.90;;;19.70;80.40;;;;;;5012724;28;20313;-69
2022/07/18 01:16:52;;;;;;;1999.90;999.90;;;19.60;84.90;;;;;;5012359;28;20500;-70
2022/07/18 01:19:18;;;;;;;1999.90;999.90;;;19.50;90.90;;;;;;5012455;28;20231;-69
2022/07/18 01:21:44;;;;;;;1999.90;999.90;;;19.40;93.10;;;;;;5012562;28;20491;-70
2022/07/18 01:24:09;;;;;;;1999.90;999.90;;;19.30;95.60;;;;;;5012539;28;20166;-70
2022/07/18 01:26:36;;;;;;;1999.90;999.90;;;19.30;97.10;;;;;;5011624;28;20768;-69
2022/07/18 01:29:02;;;;;;;1999.90;999.90;;;19.30;98.10;;;;;;5012255;28;20712;-70
2022/07/18 01:31:33;;;;;;;1999.90;999.90;;;19.20;99.80;;;;;;5012414;28;20404;-70
2022/07/18 01:33:58;;;;;;;1999.90;999.90;;;19.20;99.90;;;;;;5012461;28;20162;-69
2022/07/18 01:36:24;;;;;;;1999.90;999.90;;;19.20;99.90;;;;;;5012080;28;21087;-70
2022/07/18 01:38:50;;;;;;;1999.90;999.90;;;19.20;99.90;;;;;;5012339;28;20255;-69
2022/07/18 01:41:15;;;;;;;1999.90;999.90;;;19.10;99.90;;;;;;5012234;28;20642;-70
2022/07/18 01:43:42;;;;;;;1999.90;999.90;;;19.00;99.90;;;;;;5012290;28;20173;-69
2022/07/18 01:46:11;;;;;;;1999.90;999.90;;;19.00;99.90;;;;;;5011867;28;20165;-70
2022/07/18 01:48:40;;;;;;;1999.90;999.90;;;19.00;99.90;;;;;;5012218;28;20420;-69
2022/07/18 01:51:09;;;;;;;1999.90;999.90;;;18.90;99.90;;;;;;5012366;28;20397;-69
2022/07/18 01:53:39;;;;;;;1999.90;999.90;;;18.80;99.90;;;;;;5012252;28;20419;-68
2022/07/18 01:56:07;;;;;;;1999.90;999.90;;;18.80;99.90;;;;;;5012163;28;20421;-68
2022/07/18 01:58:32;;;;;;;1999.90;999.90;;;18.70;99.90;;;;;;5012537;28;21059;-69
2022/07/18 02:00:58;;;;;;;1999.90;999.90;;;18.60;99.90;;;;;;5012374;28;20410;-69
2022/07/18 02:03:24;;;;;;;1999.90;999.90;;;18.60;99.90;;;;;;5012314;28;20165;-69
2022/07/18 02:05:49;;;;;;;1999.90;999.90;;;18.60;99.90;;;;;;5012206;28;20418;-69
2022/07/18 02:08:15;;;;;;;1999.90;999.90;;;18.50;99.90;;;;;;5012903;28;20196;-69
2022/07/18 02:10:41;;;;;;;1999.90;999.90;;;18.50;99.90;;;;;;5012873;28;20165;-68
2022/07/18 02:13:06;;;;;;;1999.90;999.90;;;18.50;99.90;;;;;;5012395;28;20179;-69
2022/07/18 02:15:32;;;;;;;1999.90;999.90;;;18.40;99.90;;;;;;5011994;28;20169;-69
2022/07/18 02:17:58;;;;;;;1999.90;999.90;;;18.40;99.90;;;;;;5011665;28;20544;-69
2022/07/18 02:20:24;;;;;;;1999.90;999.90;;;18.30;99.90;;;;;;5012386;28;20284;-69
2022/07/18 02:22:49;;;;;;;1999.90;999.90;;;18.30;99.90;;;;;;5011778;28;20441;-69
2022/07/18 02:25:15;;;;;;;1999.90;999.90;;;18.20;99.90;;;;;;5011870;28;20227;-69
2022/07/18 02:27:41;;;;;;;1999.90;999.90;;;18.20;99.90;;;;;;5011935;28;20201;-69
2022/07/18 02:30:08;;;;;;;1999.90;999.90;;;18.10;99.90;;;;;;5013029;28;20434;-69
2022/07/18 02:32:36;;;;;;;1999.90;999.90;;;18.10;99.90;;;;;;5012481;28;20172;-69
2022/07/18 02:35:04;;;;;;;1999.90;999.90;;;18.10;99.90;;;;;;5011887;28;20437;-68
2022/07/18 02:37:29;;;;;;;1999.90;999.90;;;18.00;99.90;;;;;;5012345;28;20828;-69
2022/07/18 02:39:55;;;;;;;1999.90;999.90;;;18.00;99.90;;;;;;5015357;28;20424;-70
2022/07/18 02:42:20;;;;;;;1999.90;999.90;;;17.90;99.90;;;;;;5015456;28;20591;-69
2022/07/18 02:44:46;;;;;;;1999.90;999.90;;;18.00;99.90;;;;;;5015444;28;20208;-68
2022/07/18 02:47:11;;;;;;;1999.90;999.90;;;17.90;99.90;;;;;;5015153;28;20194;-69
2022/07/18 02:49:38;;;;;;;1999.90;999.90;;;17.90;99.90;;;;;;5015292;28;20185;-69
2022/07/18 02:52:08;;;;;;;1999.90;999.90;;;17.90;99.90;;;;;;5015282;28;20197;-69
2022/07/18 02:54:36;;;;;;;1999.90;999.90;;;17.80;99.90;;;;;;5015187;28;20388;-69
2022/07/18 02:57:02;;;;;;;1999.90;999.90;;;17.70;99.90;;;;;;5015183;28;20403;-68
2022/07/18 02:59:27;;;;;;;1999.90;999.90;;;17.60;99.90;;;;;;5015342;28;20505;-68
2022/07/18 03:01:54;;;;;;;1999.90;999.90;;;17.50;99.90;;;;;;5015096;28;20185;-69
2022/07/18 03:04:20;;;;;;;1999.90;999.90;;;17.50;99.90;;;;;;5015047;28;20166;-69
2022/07/18 03:06:47;;;;;;;1999.90;999.90;;;17.40;99.90;;;;;;5014902;28;20484;-68
2022/07/18 03:09:14;;;;;;;1999.90;999.90;;;17.40;99.90;;;;;;5014869;28;20423;-69
2022/07/18 03:11:39;;;;;;;1999.90;999.90;;;17.40;99.90;;;;;;5014915;28;20891;-69
2022/07/18 03:14:05;;;;;;;1999.90;999.90;;;17.30;99.90;;;;;;5015535;28;20408;-69
2022/07/18 03:16:31;;;;;;;1999.90;999.90;;;17.30;99.90;;;;;;5014977;28;20412;-69
2022/07/18 03:18:57;;;;;;;1999.90;999.90;;;17.30;99.90;;;;;;5015318;28;20251;-69
2022/07/18 03:21:23;;;;;;;1999.90;999.90;;;17.30;99.90;;;;;;5015492;28;20562;-68
2022/07/18 03:23:49;;;;;;;1999.90;999.90;;;17.30;99.90;;;;;;5015056;28;20255;-68
2022/07/18 03:26:14;;;;;;;1999.90;999.90;;;17.30;99.90;;;;;;5014632;28;20801;-68
2022/07/18 03:28:40;;;;;;;1999.90;999.90;;;17.20;99.90;;;;;;5014486;28;20500;-69
2022/07/18 03:31:06;;;;;;;1999.90;999.90;;;17.30;99.90;;;;;;5014618;28;20171;-68
2022/07/18 03:33:31;;;;;;;1999.90;999.90;;;17.20;99.90;;;;;;5014597;28;20164;-69
2022/07/18 03:35:57;;;;;;;1999.90;999.90;;;17.20;99.90;;;;;;5014338;28;20169;-70
2022/07/18 03:38:22;;;;;;;1999.90;999.90;;;17.20;99.90;;;;;;5014495;28;20203;-69
2022/07/18 03:40:48;;;;;;;1999.90;999.90;;;17.20;99.90;;;;;;5014585;28;20216;-69
2022/07/18 03:43:14;;;;;;;1999.90;999.90;;;17.20;99.90;;;;;;5014382;28;20546;-69
2022/07/18 03:45:39;;;;;;;1999.90;999.90;;;17.20;99.90;;;;;;5014404;28;20170;-70
2022/07/18 03:48:05;;;;;;;1999.90;999.90;;;17.10;99.90;;;;;;5013679;28;20599;-68
2022/07/18 03:50:31;;;;;;;1999.90;999.90;;;17.10;99.90;;;;;;5014214;28;20166;-69
2022/07/18 03:52:57;;;;;;;1999.90;999.90;;;17.10;99.90;;;;;;5014204;28;20168;-68
2022/07/18 03:55:23;;;;;;;1999.90;999.90;;;17.10;99.90;;;;;;5014118;28;20176;-68
2022/07/18 03:57:48;;;;;;;1999.90;999.90;;;17.00;99.90;;;;;;5014009;28;20406;-68
2022/07/18 04:00:14;;;;;;;1999.90;999.90;;;17.00;99.90;;;;;;5013931;28;20436;-69
2022/07/18 04:02:45;;;;;;;1999.90;999.90;;;17.00;99.90;;;;;;5013952;28;20249;-69
2022/07/18 04:05:12;;;;;;;1999.90;999.90;;;17.00;99.90;;;;;;5013965;28;20461;-69
2022/07/18 04:07:38;;;;;;;1999.90;999.90;;;17.00;99.90;;;;;;5013409;28;20517;-69
2022/07/18 04:10:05;;;;;;;1999.90;999.90;;;17.10;99.90;;;;;;5014160;28;20447;-69
2022/07/18 04:12:31;;;;;;;1999.90;999.90;;;17.00;99.90;;;;;;5014300;28;20797;-69
2022/07/18 04:14:57;;;;;;;1999.90;999.90;;;17.10;99.90;;;;;;5014371;28;20414;-69
2022/07/18 04:17:23;;;;;;;1999.90;999.90;;;17.10;99.90;;;;;;5014119;28;20405;-69
2022/07/18 04:19:48;;;;;;;1999.90;999.90;;;17.10;99.90;;;;;;5014261;28;20193;-68
2022/07/18 04:22:14;;;;;;;1999.90;999.90;;;17.10;99.90;;;;;;5014123;28;20674;-68
2022/07/18 04:24:39;;;;;;;1999.90;999.90;;;17.20;99.90;;;;;;5013599;28;20173;-68
2022/07/18 04:27:05;;;;;;;1999.90;999.90;;;17.20;99.90;;;;;;5013147;28;20199;-69
2022/07/18 04:29:31;;;;;;;1999.90;999.90;;;17.20;99.90;;;;;;5013661;28;20698;-69
2022/07/18 04:31:58;;;;;;;1999.90;999.90;;;17.20;99.90;;;;;;5013479;28;20175;-68
2022/07/18 04:34:23;;;;;;;1999.90;999.90;;;17.30;99.90;;;;;;5013420;28;20415;-68
2022/07/18 04:36:49;;;;;;;1999.90;999.90;;;17.30;99.90;;;;;;5013249;28;20419;-68
2022/07/18 04:39:16;;;;;;;1999.90;999.90;;;17.40;99.90;;;;;;5013271;28;20208;-69
2022/07/18 04:41:42;;;;;;;1999.90;999.90;;;17.40;99.90;;;;;;5013448;28;20256;-68
2022/07/18 04:44:08;;;;;;;1999.90;999.90;;;17.40;99.90;;;;;;5013242;28;20410;-68
2022/07/18 04:46:34;;;;;;;1999.90;999.90;;;17.40;99.90;;;;;;5012984;28;20798;-68
2022/07/18 04:48:59;;;;;;;1999.90;999.90;;;17.50;99.90;;;;;;5013119;28;20185;-68
2022/07/18 04:51:25;;;;;;;1999.90;999.90;;;17.50;99.90;;;;;;5013061;28;20175;-68
2022/07/18 04:53:51;;;;;;;1999.90;999.90;;;17.50;99.90;;;;;;5013093;28;20648;-68
2022/07/18 04:56:16;;;;;;;1999.90;999.90;;;17.50;99.90;;;;;;5012977;28;20170;-68
2022/07/18 04:58:42;;;;;;;1999.90;999.90;;;17.50;99.90;;;;;;5013517;28;20277;-69
2022/07/18 05:01:07;;;;;;;1999.90;999.90;;;17.60;99.90;;;;;;5012417;28;20631;-69
2022/07/18 05:03:33;;;;;;;1999.90;999.90;;;17.70;99.90;;;;;;5013298;28;20166;-69
2022/07/18 05:05:58;;;;;;;1999.90;999.90;;;17.70;99.90;;;;;;5012868;28;20655;-69
2022/07/18 05:08:24;;;;;;;1999.90;999.90;;;17.80;99.90;;;;;;5012804;28;20235;-69
2022/07/18 05:10:50;;;;;;;1999.90;999.90;;;17.80;99.90;;;;;;5012747;28;20163;-69
2022/07/18 05:13:16;;;;;;;1999.90;999.90;;;18.00;99.90;;;;;;5012860;28;20172;-69
2022/07/18 05:15:41;;;;;;;1999.90;999.90;;;18.00;99.90;;;;;;5012452;28;20167;-70
2022/07/18 05:18:07;;;;;;;1999.90;999.90;;;18.00;99.90;;;;;;5012324;28;20420;-69
2022/07/18 05:20:33;;;;;;;1999.90;999.90;;;18.20;99.90;;;;;;5012581;28;20680;-69
2022/07/18 05:22:58;;;;;;;1999.90;999.90;;;18.20;99.90;;;;;;5012667;28;20200;-68
2022/07/18 05:25:24;;;;;;;1999.90;999.90;;;18.20;99.90;;;;;;5012967;28;20171;-68
2022/07/18 05:27:51;;;;;;;1999.90;999.90;;;18.20;99.90;;;;;;5012805;28;20743;-69
2022/07/18 05:30:17;;;;;;;1999.90;999.90;;;18.30;99.90;;;;;;5012832;28;20540;-69
2022/07/18 05:32:44;;;;;;;1999.90;999.90;;;18.40;99.90;;;;;;5012888;28;20506;-69
2022/07/18 05:35:11;;;;;;;1999.90;999.90;;;18.50;99.90;;;;;;5012877;28;20791;-69
2022/07/18 05:37:37;;;;;;;1999.90;999.90;;;18.60;99.90;;;;;;5012221;28;20575;-68
2022/07/18 05:40:05;;;;;;;1999.90;999.90;;;18.70;99.90;;;;;;5012294;28;20427;-69
2022/07/18 05:42:31;;;;;;;1999.90;999.90;;;18.70;99.90;;;;;;5012186;28;20404;-69
2022/07/18 05:44:56;;;;;;;1999.90;999.90;;;18.80;99.90;;;;;;5012305;28;20427;-68
2022/07/18 05:47:22;;;;;;;1999.90;999.90;;;18.90;99.90;;;;;;5012182;28;20228;-69
2022/07/18 05:49:47;;;;;;;1999.90;999.90;;;19.00;99.90;;;;;;5012106;28;20192;-69
2022/07/18 05:52:13;;;;;;;1999.90;999.90;;;19.10;99.90;;;;;;5011010;28;20268;-69
2022/07/18 05:54:39;;;;;;;1999.90;999.90;;;19.20;99.90;;;;;;5012185;28;20172;-69
2022/07/18 05:57:04;;;;;;;1999.90;999.90;;;19.20;99.90;;;;;;5012142;28;20200;-69
2022/07/18 05:59:30;;;;;;;1999.90;999.90;;;19.40;99.90;;;;;;5011949;28;20208;-69
2022/07/18 06:01:56;;;;;;;1999.90;999.90;;;19.40;99.90;;;;;;5012331;28;20643;-69
2022/07/18 06:04:21;;;;;;;1999.90;999.90;;;19.50;99.90;;;;;;5012228;28;20203;-69
2022/07/18 06:06:49;;;;;;;1999.90;999.90;;;19.60;99.90;;;;;;5011672;28;20197;-69
2022/07/18 06:09:17;;;;;;;1999.90;999.90;;;19.60;99.90;;;;;;5011882;28;20616;-69
2022/07/18 06:11:43;;;;;;;1999.90;999.90;;;19.80;99.90;;;;;;5013154;28;20902;-69
2022/07/18 06:14:08;;;;;;;1999.90;999.90;;;19.90;99.90;;;;;;5016083;28;20500;-68
2022/07/18 06:16:34;;;;;;;1999.90;999.90;;;20.00;99.90;;;;;;5015880;28;20414;-69
2022/07/18 06:19:00;;;;;;;1999.90;999.90;;;20.20;99.90;;;;;;5015783;28;20198;-69
2022/07/18 06:21:26;;;;;;;1999.90;999.90;;;20.30;99.90;;;;;;5016404;28;20405;-69
2022/07/18 06:23:52;;;;;;;1999.90;999.90;;;20.40;99.90;;;;;;5016672;28;20185;-69
2022/07/18 06:26:17;;;;;;;1999.90;999.90;;;20.60;99.90;;;;;;5015791;28;20982;-69
2022/07/18 06:28:43;;;;;;;1999.90;999.90;;;20.70;99.90;;;;;;5015667;28;20285;-68
2022/07/18 06:31:11;;;;;;;1999.90;999.90;;;20.80;99.90;;;;;;5016055;28;20177;-68
2022/07/18 06:33:37;;;;;;;1999.90;999.90;;;21.00;99.90;;;;;;5015580;28;20664;-68
2022/07/18 06:36:03;;;;;;;1999.90;999.90;;;21.10;99.90;;;;;;5015530;28;20407;-68
2022/07/18 06:38:28;;;;;;;1999.90;999.90;;;21.30;99.90;;;;;;5015397;28;20194;-69
2022/07/18 06:40:54;;;;;;;1999.90;999.90;;;21.40;99.90;;;;;;5015510;28;20410;-68
2022/07/18 06:43:20;;;;;;;1999.90;999.90;;;21.60;99.90;;;;;;5015492;28;20176;-69
2022/07/18 06:45:47;;;;;;;1999.90;999.90;;;21.80;99.90;;;;;;5015374;28;20179;-69
2022/07/18 06:48:14;;;;;;;1999.90;999.90;;;21.90;99.90;;;;;;5015252;28;20219;-68
2022/07/18 06:50:40;;;;;;;1999.90;999.90;;;22.00;99.90;;;;;;5015810;28;20397;-69
2022/07/18 06:53:05;;;;;;;1999.90;999.90;;;22.20;99.90;;;;;;5016078;28;20818;-68
2022/07/18 06:55:31;;;;;;;1999.90;999.90;;;22.30;99.90;;;;;;5016093;28;20173;-69
2022/07/18 06:57:57;;;;;;;1999.90;999.90;;;22.50;99.90;;;;;;5015372;28;20184;-69
2022/07/18 07:00:22;;;;;;;1999.90;999.90;;;22.50;99.90;;;;;;5016252;28;20567;-69
2022/07/18 07:02:49;;;;;;;1999.90;999.90;;;22.60;99.90;;;;;;5015721;28;20208;-68
2022/07/18 07:05:16;;;;;;;1999.90;999.90;;;22.70;99.90;;;;;;5015818;28;20200;-69
2022/07/18 07:07:42;;;;;;;1999.90;999.90;;;22.70;99.90;;;;;;5014952;28;20473;-69
2022/07/18 07:10:08;;;;;;;1999.90;999.90;;;22.80;99.90;;;;;;5015439;28;20502;-69
2022/07/18 07:12:45;;;;;;;1999.90;999.90;;;22.90;99.90;;;;;;5015110;28;20913;-69
2022/07/18 07:15:11;;;;;;;1999.90;999.90;;;23.00;99.90;;;;;;5015277;28;20168;-70
2022/07/18 07:17:37;;;;;;;1999.90;999.90;;;23.10;98.90;;;;;;5015186;28;20382;-69
2022/07/18 07:20:05;;;;;;;1999.90;999.90;;;23.20;99.90;;;;;;5015857;28;20415;-69
2022/07/18 07:22:31;;;;;;;1999.90;999.90;;;23.40;99.90;;;;;;5015106;28;20259;-69
2022/07/18 07:24:58;;;;;;;1999.90;999.90;;;23.50;98.30;;;;;;5014315;28;21002;-70
2022/07/18 07:27:23;;;;;;;1999.90;999.90;;;23.70;96.80;;;;;;5014858;28;20820;-69
2022/07/18 07:29:49;;;;;;;1999.90;999.90;;;23.80;95.40;;;;;;5014466;28;20419;-70
2022/07/18 07:32:15;;;;;;;1999.90;999.90;;;23.90;95.00;;;;;;5014855;28;20182;-69
2022/07/18 07:34:40;;;;;;;1999.90;999.90;;;24.00;94.80;;;;;;5014923;28;20169;-69
2022/07/18 07:37:06;;;;;;;1999.90;999.90;;;24.20;92.20;;;;;;5014598;28;20183;-69
2022/07/18 07:39:31;;;;;;;1999.90;999.90;;;24.40;92.40;;;;;;5014895;28;20195;-69
2022/07/18 07:41:57;;;;;;;1999.90;999.90;;;24.30;92.60;;;;;;5014451;28;20179;-68
2022/07/18 07:44:22;;;;;;;1999.90;999.90;;;24.40;91.00;;;;;;5014406;28;20173;-70
2022/07/18 07:46:49;;;;;;;1999.90;999.90;;;24.50;92.00;;;;;;5014278;28;20372;-69
2022/07/18 07:49:15;;;;;;;1999.90;999.90;;;24.50;90.10;;;;;;5014097;28;20594;-69
2022/07/18 07:51:40;;;;;;;1999.90;999.90;;;24.60;90.20;;;;;;5014267;28;20379;-69
2022/07/18 07:54:06;;;;;;;1999.90;999.90;;;24.80;88.20;;;;;;5014212;28;20177;-70
2022/07/18 07:56:32;;;;;;;1999.90;999.90;;;25.00;83.70;;;;;;5013901;28;20220;-70
2022/07/18 07:58:57;;;;;;;1999.90;999.90;;;25.00;85.30;;;;;;5013984;28;20185;-69
2022/07/18 08:01:23;;;;;;;1999.90;999.90;;;25.20;80.70;;;;;;5013976;28;20256;-68
2022/07/18 08:03:49;;;;;;;1999.90;999.90;;;25.20;78.30;;;;;;5014106;28;20165;-69
2022/07/18 08:06:15;;;;;;;1999.90;999.90;;;25.30;83.40;;;;;;5014025;28;20169;-68
2022/07/18 08:08:41;;;;;;;1999.90;999.90;;;25.40;79.30;;;;;;5013773;28;20525;-69
2022/07/18 08:11:07;;;;;;;1999.90;999.90;;;25.60;77.90;;;;;;5014156;28;20495;-69
2022/07/18 08:13:32;;;;;;;1999.90;999.90;;;25.70;76.60;;;;;;5013795;28;20536;-68
2022/07/18 08:15:58;;;;;;;1999.90;999.90;;;25.90;76.20;;;;;;5013624;28;20177;-69
2022/07/18 08:18:23;;;;;;;1999.90;999.90;;;26.00;73.10;;;;;;5013536;28;20183;-68
2022/07/18 08:20:49;;;;;;;1999.90;999.90;;;26.10;72.90;;;;;;5014014;28;20181;-69
2022/07/18 08:23:16;;;;;;;1999.90;999.90;;;26.20;69.70;;;;;;5014623;28;20219;-69
2022/07/18 08:25:44;;;;;;;1999.90;999.90;;;26.30;68.60;;;;;;5014315;28;20536;-69
2022/07/18 08:28:10;;;;;;;1999.90;999.90;;;26.40;66.40;;;;;;5013198;28;20816;-69
2022/07/18 08:30:37;;;;;;;1999.90;999.90;;;26.50;62.70;;;;;;5013500;28;20770;-70
2022/07/18 08:33:03;;;;;;;1999.90;999.90;;;26.60;62.30;;;;;;5013263;28;20378;-69
2022/07/18 08:35:31;;;;;;;1999.90;999.90;;;26.80;60.10;;;;;;5013595;28;20933;-70
2022/07/18 08:37:57;;;;;;;1999.90;999.90;;;27.00;58.90;;;;;;5013062;28;20390;-69
2022/07/18 08:40:23;;;;;;;1999.90;999.90;;;27.10;51.00;;;;;;5013228;28;20446;-69
2022/07/18 08:42:51;;;;;;;1999.90;999.90;;;27.20;47.90;;;;;;5013503;28;20172;-69
2022/07/18 08:45:20;;;;;;;1999.90;999.90;;;27.40;44.90;;;;;;5013152;28;20180;-69
2022/07/18 08:47:45;;;;;;;1999.90;999.90;;;27.40;45.30;;;;;;5013061;28;20822;-69
2022/07/18 08:50:11;;;;;;;1999.90;999.90;;;27.60;42.00;;;;;;5013168;28;20444;-69
2022/07/18 08:52:38;;;;;;;1999.90;999.90;;;27.80;38.90;;;;;;5013245;28;20200;-68
2022/07/18 08:55:06;;;;;;;1999.90;999.90;;;27.80;39.20;;;;;;5013032;28;20214;-68
2022/07/18 08:57:32;;;;;;;1999.90;999.90;;;28.00;34.80;;;;;;5012681;28;20407;-69
2022/07/18 08:59:57;;;;;;;1999.90;999.90;;;28.10;33.50;;;;;;5012877;28;20450;-69
2022/07/18 09:02:27;;;;;;;1999.90;999.90;;;28.20;33.90;;;;;;5012911;28;20176;-69
2022/07/18 09:04:53;;;;;;;1999.90;999.90;;;28.20;34.60;;;;;;5012974;28;20173;-68
2022/07/18 09:07:30;;;;;;;1999.90;999.90;;;28.30;31.60;;;;;;5013009;28;20457;-69
2022/07/18 09:09:58;;;;;;;1999.90;999.90;;;28.40;27.10;;;;;;5012725;28;20401;-69
2022/07/18 09:12:25;;;;;;;1999.90;999.90;;;28.60;25.20;;;;;;5012846;28;20458;-69
2022/07/18 09:14:51;;;;;;;1999.90;999.90;;;28.70;26.90;;;;;;5012663;28;20439;-68
2022/07/18 09:17:23;;;;;;;1999.90;999.90;;;28.80;26.70;;;;;;5012467;28;20498;-69
2022/07/18 09:20:07;;;;;;;1999.90;999.90;;;28.80;25.10;;;;;;5012780;28;20209;-69
2022/07/18 09:22:34;;;;;;;1999.90;999.90;;;28.90;24.10;;;;;;5012647;28;20408;-68
2022/07/18 09:25:08;;;;;;;1999.90;999.90;;;29.10;20.00;;;;;;5012487;28;20499;-69
2022/07/18 09:27:37;;;;;;;1999.90;999.90;;;29.20;19.90;;;;;;5012208;28;20451;-69
2022/07/18 09:30:29;;;;;;;1999.90;999.90;;;29.30;20.30;;;;;;5012748;28;20454;-70
2022/07/18 09:33:04;;;;;;;1999.90;999.90;;;29.50;20.20;;;;;;5012887;28;20399;-69
2022/07/18 09:35:36;;;;;;;1999.90;999.90;;;29.60;18.40;;;;;;5012626;28;20429;-69
2022/07/18 09:38:07;;;;;;;1999.90;999.90;;;29.80;17.50;;;;;;5011229;28;20415;-69
2022/07/18 09:40:40;;;;;;;1999.90;999.90;;;30.00;15.10;;;;;;5012822;28;20415;-68
2022/07/18 09:43:11;;;;;;;1999.90;999.90;;;30.10;11.90;;;;;;5012505;28;20419;-69
2022/07/18 09:45:47;;;;;;;1999.90;999.90;;;29.90;11.80;;;;;;5012182;28;20415;-69
2022/07/18 09:48:18;;;;;;;1999.90;999.90;;;30.20;11.50;;;;;;5011670;28;20490;-69
2022/07/18 09:51:01;;;;;;;1999.90;999.90;;;30.30;11.80;;;;;;5012250;28;20408;-69
2022/07/18 09:53:30;;;;;;;1999.90;999.90;;;30.10;10.80;;;;;;5012228;28;20408;-69
2022/07/18 09:55:59;;;;;;;1999.90;999.90;;;30.20;10.60;;;;;;5011992;28;20408;-69
2022/07/18 09:58:28;;;;;;;1999.90;999.90;;;30.40;9.40;;;;;;5012049;28;20435;-68
2022/07/18 10:00:55;;;;;;;1999.90;999.90;;;30.70;10.10;;;;;;5012143;28;20408;-69
2022/07/18 10:03:23;;;;;;;1999.90;999.90;;;30.80;9.50;;;;;;5012091;28;20458;-69
2022/07/18 10:05:50;;;;;;;1999.90;999.90;;;30.90;10.10;;;;;;5012104;28;20454;-69
2022/07/18 10:08:18;;;;;;;1999.90;999.90;;;31.00;9.80;;;;;;5011830;28;20463;-69
2022/07/18 10:10:46;;;;;;;1999.90;999.90;;;31.20;11.10;;;;;;5012092;28;20747;-70
2022/07/18 10:13:13;;;;;;;1999.90;999.90;;;31.30;11.30;;;;;;5011947;28;20978;-69
2022/07/18 10:15:41;;;;;;;1999.90;999.90;;;31.50;10.20;;;;;;5012059;28;20400;-69
2022/07/18 10:18:10;;;;;;;1999.90;999.90;;;31.80;9.70;;;;;;5011822;28;20412;-69
2022/07/18 10:20:43;;;;;;;1999.90;999.90;;;31.80;9.10;;;;;;5012045;28;20408;-69
2022/07/18 10:23:25;;;;;;;1999.90;999.90;;;31.80;8.50;;;;;;5011913;28;20499;-69
2022/07/18 10:26:10;;;;;;;1999.90;999.90;;;31.80;9.30;;;;;;5011915;28;20411;-70
2022/07/18 10:28:35;;;;;;;1999.90;999.90;;;32.00;9.60;;;;;;5011546;28;20467;-69
2022/07/18 10:31:15;;;;;;;1999.90;999.90;;;32.20;9.50;;;;;;5011875;28;20922;-69
2022/07/18 10:33:48;;;;;;;1999.90;999.90;;;32.30;9.20;;;;;;5011833;28;20165;-69
2022/07/18 10:36:15;;;;;;;1999.90;999.90;;;32.50;9.00;;;;;;5011527;28;20415;-69
2022/07/18 10:39:22;;;;;;;1999.90;999.90;;;32.60;8.90;;;;;;5011676;28;20442;-69
2022/07/18 10:41:48;;;;;;;1999.90;999.90;;;32.70;8.70;;;;;;5011854;28;20403;-70
2022/07/18 10:44:23;;;;;;;1999.90;999.90;;;32.70;8.50;;;;;;5011635;28;20446;-70
2022/07/18 10:47:17;;;;;;;1999.90;999.90;;;32.80;8.90;;;;;;5011399;28;20447;-68
2022/07/18 10:49:52;;;;;;;1999.90;999.90;;;32.80;7.70;;;;;;5011657;28;20419;-69
2022/07/18 10:52:30;;;;;;;1999.90;999.90;;;32.70;8.10;;;;;;5011640;28;20411;-69
2022/07/18 10:55:01;;;;;;;1999.90;999.90;;;32.90;8.40;;;;;;5011681;28;20400;-70
2022/07/18 10:57:31;;;;;;;1999.90;999.90;;;33.00;7.90;;;;;;5011638;28;20420;-69
2022/07/18 11:00:06;;;;;;;1999.90;999.90;;;33.10;7.80;;;;;;5014410;28;20439;-69
2022/07/18 11:02:34;;;;;;;1999.90;999.90;;;33.10;7.80;;;;;;5015206;28;20388;-69
2022/07/18 11:05:00;;;;;;;1999.90;999.90;;;32.90;7.80;;;;;;5015025;28;20415;-69
2022/07/18 11:07:25;;;;;;;1999.90;999.90;;;32.90;7.30;;;;;;5014880;28;20448;-68
2022/07/18 11:09:51;;;;;;;1999.90;999.90;;;32.80;7.50;;;;;;5014933;28;20428;-70
2022/07/18 11:12:30;;;;;;;1999.90;999.90;;;32.90;7.50;;;;;;5014909;28;20196;-70
2022/07/18 11:14:58;;;;;;;1999.90;999.90;;;32.80;6.70;;;;;;5014905;28;20165;-70
2022/07/18 11:17:55;;;;;;;1999.90;999.90;;;32.70;7.00;;;;;;5014504;28;20499;-70
2022/07/18 11:20:36;;;;;;;1999.90;999.90;;;33.10;7.20;;;;;;5015030;28;20442;-69
2022/07/18 11:23:23;;;;;;;1999.90;999.90;;;33.50;6.10;;;;;;5014844;28;20404;-69
2022/07/18 11:25:57;;;;;;;1999.90;999.90;;;33.70;5.80;;;;;;5014560;28;20412;-69
2022/07/18 11:31:11;;;;;;;1999.90;999.90;;;34.00;5.30;;;;;;5033971;22;20502;-73
2022/07/18 11:33:43;;;;;;;1999.90;999.90;;;34.10;5.00;;;;;;4995232;28;20492;-73
2022/07/18 11:36:19;;;;;;;1999.90;999.90;;;34.20;4.80;;;;;;4995127;28;20396;-73
2022/07/18 11:38:47;;;;;;;1999.90;999.90;;;34.20;5.20;;;;;;4994882;28;20452;-73
2022/07/18 11:41:13;;;;;;;1999.90;999.90;;;34.40;4.70;;;;;;4994819;28;20397;-73
2022/07/18 11:43:39;;;;;;;1999.90;999.90;;;34.40;4.80;;;;;;4995319;28;20428;-73
2022/07/18 11:46:08;;;;;;;1999.90;999.90;;;34.60;4.50;;;;;;4995276;28;20415;-73
2022/07/18 11:48:35;;;;;;;1999.90;999.90;;;34.70;4.10;;;;;;4994728;28;20211;-73
2022/07/18 11:51:01;;;;;;;1999.90;999.90;;;34.70;3.50;;;;;;4994475;28;20413;-73
2022/07/18 11:53:28;;;;;;;1999.90;999.90;;;34.60;3.80;;;;;;4994596;28;20500;-74
2022/07/18 11:55:54;;;;;;;1999.90;999.90;;;34.80;3.70;;;;;;4994491;28;20467;-73
2022/07/18 11:58:20;;;;;;;1999.90;999.90;;;35.00;3.50;;;;;;4994532;28;20547;-73
2022/07/18 12:00:46;;;;;;;1999.90;999.90;;;35.40;3.60;;;;;;4995007;28;20515;-73
2022/07/18 12:03:23;;;;;;;1999.90;999.90;;;35.40;4.20;;;;;;4994556;28;20423;-73
2022/07/18 12:05:51;;;;;;;1999.90;999.90;;;35.50;4.20;;;;;;4994508;28;20478;-74
2022/07/18 12:08:32;;;;;;;1999.90;999.90;;;35.80;4.30;;;;;;4994039;28;20452;-74